createdAt,value
2019-06-08T00:00:03.792Z,1.00
2019-06-08T00:02:34.121Z,1.00
2019-06-08T00:05:04.994Z,1.10
2019-06-08T00:07:35.302Z,1.03
2019-06-08T00:20:23.694Z,1.07
2019-06-08T00:22:53.998Z,1.10
2019-06-08T00:25:24.321Z,1.00
2019-06-08T00:27:55.919Z,1.17
2019-06-08T00:30:31.175Z,1.10
2019-06-08T00:33:01.488Z,0.93
2019-06-08T00:35:32.108Z,1.37
2019-06-08T00:38:02.413Z,1.10
2019-06-08T00:40:33.620Z,1.20
2019-06-08T00:44:12.155Z,1.00
2019-06-08T00:46:49.389Z,1.00
2019-06-08T00:49:20.574Z,1.20
2019-06-08T00:51:54.003Z,1.20
2019-06-08T00:54:25.675Z,0.90
2019-06-08T00:56:56.474Z,1.20
2019-06-08T00:59:28.037Z,1.10
2019-06-08T01:01:58.363Z,0.87
2019-06-08T01:04:29.157Z,1.40
2019-06-08T01:06:59.889Z,1.00
2019-06-08T01:09:31.207Z,0.90
2019-06-08T01:12:02.032Z,1.20
2019-06-08T01:14:32.366Z,1.10
2019-06-08T01:17:02.881Z,1.17
2019-06-08T01:19:33.288Z,1.00
2019-06-08T01:22:03.726Z,1.00
2019-06-08T01:24:34.105Z,1.10
2019-06-08T01:27:04.994Z,1.33
2019-06-08T01:29:35.791Z,1.20
2019-06-08T01:32:06.437Z,1.40
2019-06-08T01:34:36.738Z,0.70
2019-06-08T01:37:07.516Z,1.00
2019-06-08T01:39:37.835Z,1.03
2019-06-08T01:42:08.129Z,1.10
2019-06-08T01:44:38.645Z,1.37
2019-06-08T01:47:10.634Z,1.00
2019-06-08T01:49:41.010Z,1.00
2019-06-08T01:52:11.284Z,1.07
2019-06-08T01:54:42.834Z,0.90
2019-06-08T01:57:13.148Z,1.00
2019-06-08T01:59:43.408Z,0.90
2019-06-08T02:02:14.007Z,1.10
2019-06-08T02:04:44.288Z,1.13
2019-06-08T02:07:15.590Z,1.10
2019-06-08T02:09:45.847Z,1.00
2019-06-08T02:12:16.429Z,1.10
2019-06-08T02:14:46.721Z,0.90
2019-06-08T02:17:20.204Z,1.00
2019-06-08T02:19:50.757Z,0.90
2019-06-08T02:22:21.051Z,0.90
2019-06-08T02:24:51.307Z,1.00
2019-06-08T02:27:21.593Z,1.00
2019-06-08T02:29:57.357Z,0.93
2019-06-08T02:32:35.599Z,1.10
2019-06-08T02:35:07.017Z,1.00
2019-06-08T02:37:38.408Z,0.80
2019-06-08T02:40:12.717Z,0.90
2019-06-08T02:42:42.991Z,1.03
2019-06-08T02:45:13.887Z,1.20
2019-06-08T02:47:44.212Z,1.10
2019-06-08T02:50:15.322Z,1.10
2019-06-08T02:52:47.372Z,1.20
2019-06-08T02:55:18.198Z,1.03
2019-06-08T02:57:52.061Z,1.00
2019-06-08T03:00:24.236Z,1.00
2019-06-08T03:02:56.151Z,1.17
2019-06-08T03:05:27.748Z,1.17
2019-06-08T03:07:59.644Z,0.90
2019-06-08T03:10:32.871Z,1.20
2019-06-08T03:13:03.507Z,0.93
2019-06-08T03:15:35.039Z,1.07
2019-06-08T03:18:07.570Z,1.20
2019-06-08T03:20:37.979Z,1.07
2019-06-08T03:23:08.995Z,0.90
2019-06-08T03:25:47.308Z,1.20
2019-06-08T03:28:12.011Z,1.17
2019-06-08T03:30:52.955Z,0.97
2019-06-08T03:33:14.483Z,1.13
2019-06-08T03:35:55.980Z,1.07
2019-06-08T03:38:16.899Z,1.00
2019-06-08T03:40:47.592Z,1.00
2019-06-08T03:43:18.004Z,1.00
2019-06-08T03:45:48.541Z,1.20
2019-06-08T03:48:18.886Z,1.13
2019-06-08T03:50:49.442Z,1.43
2019-06-08T03:53:20.999Z,1.00
2019-06-08T03:55:52.579Z,1.03
2019-06-08T03:58:22.924Z,0.90
2019-06-08T04:00:53.146Z,0.90
2019-06-08T04:03:23.520Z,1.20
2019-06-08T04:05:54.356Z,1.07
2019-06-08T04:08:24.705Z,1.10
2019-06-08T04:10:55.092Z,1.07
2019-06-08T04:13:27.696Z,1.10
2019-06-08T04:15:58.026Z,1.10
2019-06-08T04:18:28.325Z,1.20
2019-06-08T04:20:58.611Z,1.20
2019-06-08T04:23:29.086Z,1.13
2019-06-08T04:25:59.354Z,1.17
2019-06-08T04:28:30.096Z,1.30
2019-06-08T04:31:01.466Z,1.03
2019-06-08T04:33:31.783Z,1.10
2019-06-08T04:36:02.680Z,0.90
2019-06-08T04:38:33.917Z,1.60
2019-06-08T04:41:06.864Z,1.00
2019-06-08T04:43:40.403Z,0.90
2019-06-08T04:46:10.708Z,1.00
2019-06-08T04:48:43.124Z,1.10
2019-06-08T04:51:13.735Z,1.00
2019-06-08T04:53:45.540Z,1.10
2019-06-08T04:56:16.733Z,1.20
2019-06-08T04:58:48.947Z,1.20
2019-06-08T05:01:19.371Z,0.80
2019-06-08T05:03:50.224Z,1.10
2019-06-08T05:06:25.201Z,1.00
2019-06-08T05:08:56.705Z,1.67
2019-06-08T05:11:27.246Z,1.10
2019-06-08T05:13:57.666Z,1.23
2019-06-08T05:16:27.924Z,1.13
2019-06-08T05:18:59.880Z,0.90
2019-06-08T05:21:30.266Z,1.27
2019-06-08T05:24:00.804Z,1.13
2019-06-08T05:26:31.134Z,1.00
2019-06-08T05:29:01.435Z,1.20
2019-06-08T05:31:35.203Z,1.10
2019-06-08T05:34:05.609Z,1.40
2019-06-08T05:36:35.884Z,1.53
2019-06-08T05:39:07.665Z,1.30
2019-06-08T05:41:37.986Z,1.43
2019-06-08T05:44:09.733Z,0.90
2019-06-08T05:46:41.725Z,1.20
2019-06-08T05:49:16.429Z,1.10
2019-06-08T05:51:50.044Z,1.30
2019-06-08T05:54:20.724Z,1.03
2019-06-08T05:56:53.537Z,1.40
2019-06-08T05:59:24.245Z,1.60
2019-06-08T06:01:55.486Z,1.33
2019-06-08T06:04:25.794Z,1.37
2019-06-08T06:06:56.192Z,1.30
2019-06-08T06:09:32.954Z,0.90
2019-06-08T06:12:03.404Z,1.43
2019-06-08T06:14:36.881Z,1.50
2019-06-08T06:17:06.459Z,1.90
2019-06-08T06:19:36.774Z,4.33
2019-06-08T06:22:09.182Z,1.67
2019-06-08T06:24:39.516Z,1.80
2019-06-08T06:27:13.368Z,1.60
2019-06-08T06:29:45.470Z,1.60
2019-06-08T06:32:17.094Z,1.63
2019-06-08T06:34:49.905Z,2.50
2019-06-08T06:37:20.468Z,1.93
2019-06-08T06:39:52.107Z,1.40
2019-06-08T06:42:25.276Z,2.00
2019-06-08T06:44:56.221Z,1.70
2019-06-08T06:47:44.184Z,2.07
2019-06-08T06:50:14.494Z,2.10
2019-06-08T06:52:44.867Z,1.50
2019-06-08T06:55:15.683Z,1.90
2019-06-08T06:57:47.282Z,2.57
2019-06-08T07:00:32.391Z,2.87
2019-06-08T07:03:05.079Z,1.70
2019-06-08T07:05:41.813Z,1.53
2019-06-08T07:08:14.113Z,1.40
2019-06-08T07:10:47.091Z,1.77
2019-06-08T07:13:17.762Z,1.80
2019-06-08T07:15:54.108Z,2.23
2019-06-08T07:18:21.775Z,1.43
2019-06-08T07:20:55.133Z,1.50
2019-06-08T07:23:27.042Z,1.60
2019-06-08T07:25:59.873Z,2.30
2019-06-08T07:28:30.235Z,2.47
2019-06-08T07:31:00.581Z,1.60
2019-06-08T07:33:30.998Z,1.60
2019-06-08T07:36:01.565Z,1.67
2019-06-08T07:38:35.135Z,1.00
2019-06-08T07:41:06.355Z,1.77
2019-06-08T07:43:37.017Z,1.80
2019-06-08T07:46:07.906Z,1.50
2019-06-08T07:48:41.940Z,1.50
2019-06-08T07:51:12.319Z,1.60
2019-06-08T07:53:42.614Z,1.50
2019-06-08T07:56:16.581Z,1.40
2019-06-08T07:58:50.105Z,1.23
2019-06-08T08:01:35.394Z,1.40
2019-06-08T08:03:54.173Z,2.27
2019-06-08T08:06:24.733Z,1.60
2019-06-08T08:08:58.920Z,1.50
2019-06-08T08:11:29.350Z,1.63
2019-06-08T08:13:59.703Z,1.30
2019-06-08T08:16:30.368Z,1.30
2019-06-08T08:19:00.653Z,1.20
2019-06-08T08:21:30.950Z,1.00
2019-06-08T08:24:04.143Z,1.00
2019-06-08T08:26:38.930Z,1.00
2019-06-08T08:29:11.489Z,1.60
2019-06-08T08:31:43.569Z,1.20
2019-06-08T08:34:18.559Z,1.13
2019-06-08T08:36:52.187Z,0.90
2019-06-08T08:39:23.250Z,1.37
2019-06-08T08:42:04.406Z,1.13
2019-06-08T08:44:31.554Z,1.40
2019-06-08T08:47:04.312Z,1.20
2019-06-08T08:49:40.825Z,1.00
2019-06-08T08:52:17.605Z,1.13
2019-06-08T08:54:51.322Z,1.13
2019-06-08T08:57:29.017Z,1.30
2019-06-08T09:00:03.392Z,1.43
2019-06-08T09:02:38.618Z,1.67
2019-06-08T09:05:13.137Z,1.30
2019-06-08T09:08:29.543Z,1.53
2019-06-08T09:11:01.782Z,1.20
2019-06-08T09:13:49.296Z,1.37
2019-06-08T09:16:21.908Z,1.30
2019-06-08T09:18:53.892Z,1.40
2019-06-08T09:21:24.240Z,1.10
2019-06-08T09:23:55.753Z,1.00
2019-06-08T09:26:31.420Z,1.10
2019-06-08T09:29:10.707Z,1.50
2019-06-08T09:31:39.430Z,1.20
2019-06-08T09:34:14.954Z,1.50
2019-06-08T09:36:43.374Z,1.17
2019-06-08T09:39:18.355Z,1.20
2019-06-08T09:41:50.072Z,1.30
2019-06-08T09:44:20.804Z,1.10
2019-06-08T09:46:51.222Z,1.30
2019-06-08T09:49:21.510Z,1.77
2019-06-08T09:51:56.490Z,1.37
2019-06-08T09:54:28.294Z,1.43
2019-06-08T09:57:04.449Z,1.33
2019-06-08T09:59:38.405Z,1.17
2019-06-08T10:02:12.668Z,1.87
2019-06-08T10:04:49.961Z,1.40
2019-06-08T10:07:31.089Z,1.10
2019-06-08T10:10:00.420Z,1.23
2019-06-08T10:12:30.551Z,1.10
2019-06-08T10:15:08.182Z,1.30
2019-06-08T10:17:40.353Z,1.20
2019-06-08T10:20:21.799Z,1.20
2019-06-08T10:22:57.256Z,1.20
2019-06-08T10:25:33.361Z,1.20
2019-06-08T10:28:15.901Z,1.00
2019-06-08T10:30:48.535Z,1.23
2019-06-08T10:33:18.565Z,1.17
2019-06-08T10:35:49.208Z,1.40
2019-06-08T10:38:24.388Z,1.33
2019-06-08T10:41:09.158Z,1.20
2019-06-08T10:43:38.558Z,1.00
2019-06-08T10:46:16.128Z,1.10
2019-06-08T10:48:41.947Z,1.20
2019-06-08T10:51:13.095Z,1.40
2019-06-08T10:53:52.012Z,1.40
2019-06-08T10:56:18.894Z,1.00
2019-06-08T10:58:49.897Z,1.37
2019-06-08T11:01:21.147Z,1.10
2019-06-08T11:03:53.278Z,1.50
2019-06-08T11:06:25.335Z,1.30
2019-06-08T11:09:03.744Z,1.40
2019-06-08T11:11:31.865Z,1.20
2019-06-08T11:14:03.834Z,1.50
2019-06-08T11:16:34.825Z,1.53
2019-06-08T11:19:07.700Z,1.13
2019-06-08T11:21:38.689Z,1.23
2019-06-08T11:24:21.609Z,0.97
2019-06-08T11:26:41.570Z,1.20
2019-06-08T11:29:13.940Z,1.37
2019-06-08T11:31:45.236Z,1.50
2019-06-08T11:34:18.610Z,1.17
2019-06-08T11:36:48.390Z,2.00
2019-06-08T11:39:20.169Z,1.70
2019-06-08T11:41:50.588Z,1.37
2019-06-08T11:44:21.201Z,1.20
2019-06-08T11:46:51.846Z,1.40
2019-06-08T11:49:24.376Z,1.13
2019-06-08T11:51:55.005Z,1.40
2019-06-08T11:54:34.326Z,1.20
2019-06-08T11:56:57.873Z,1.20
2019-06-08T11:59:31.773Z,1.47
2019-06-08T12:02:12.678Z,1.10
2019-06-08T12:04:42.259Z,1.40
2019-06-08T12:07:15.447Z,1.10
2019-06-08T12:09:49.922Z,1.07
2019-06-08T12:12:21.250Z,1.10
2019-06-08T12:14:51.635Z,1.20
2019-06-08T12:17:22.796Z,1.30
2019-06-08T12:19:53.213Z,1.00
2019-06-08T12:22:26.280Z,1.10
2019-06-08T12:24:57.192Z,1.00
2019-06-08T12:27:36.247Z,1.30
2019-06-08T12:30:09.014Z,1.30
2019-06-08T12:32:35.963Z,1.17
2019-06-08T12:35:13.963Z,1.37
2019-06-08T12:37:44.407Z,1.60
2019-06-08T12:40:18.953Z,1.90
2019-06-08T12:42:48.518Z,1.57
2019-06-08T12:45:20.536Z,1.43
2019-06-08T12:47:54.897Z,1.20
2019-06-08T12:50:24.948Z,1.40
2019-06-08T12:52:55.194Z,0.90
2019-06-08T12:55:26.993Z,1.13
2019-06-08T12:58:00.016Z,1.00
2019-06-08T13:00:30.567Z,1.30
2019-06-08T13:03:04.305Z,0.93
2019-06-08T13:05:37.962Z,1.00
2019-06-08T13:08:10.219Z,1.03
2019-06-08T13:10:48.166Z,1.00
2019-06-08T13:13:19.979Z,1.13
2019-06-08T13:15:49.302Z,1.20
2019-06-08T13:18:22.761Z,0.87
2019-06-08T13:20:59.012Z,1.07
2019-06-08T13:23:28.948Z,1.20
2019-06-08T13:25:59.628Z,1.37
2019-06-08T13:28:32.953Z,1.10
2019-06-08T13:31:03.381Z,1.20
2019-06-08T13:33:39.430Z,1.03
2019-06-08T13:36:12.844Z,1.00
2019-06-08T13:38:43.206Z,1.30
2019-06-08T13:41:15.030Z,0.87
2019-06-08T13:43:47.664Z,1.20
2019-06-08T13:46:22.375Z,1.10
2019-06-08T13:48:52.230Z,1.23
2019-06-08T13:51:28.159Z,1.00
2019-06-08T13:54:02.022Z,0.90
2019-06-08T13:56:32.673Z,0.90
2019-06-08T13:59:03.078Z,1.10
2019-06-08T14:01:33.314Z,1.57
2019-06-08T14:04:09.034Z,0.87
2019-06-08T14:06:43.803Z,0.90
2019-06-08T14:09:14.358Z,0.90
2019-06-08T14:11:45.074Z,1.00
2019-06-08T14:14:21.030Z,1.00
2019-06-08T14:16:51.425Z,0.93
2019-06-08T14:19:24.858Z,1.07
2019-06-08T14:21:58.891Z,0.90
2019-06-08T14:24:34.598Z,0.90
2019-06-08T14:27:09.274Z,1.17
2019-06-08T14:29:43.132Z,1.07
2019-06-08T14:32:22.100Z,1.30
2019-06-08T14:34:52.672Z,1.00
2019-06-08T14:37:23.338Z,0.90
2019-06-08T14:39:57.369Z,1.10
2019-06-08T14:42:31.825Z,1.00
2019-06-08T14:45:02.212Z,0.90
2019-06-08T14:47:32.904Z,1.30
2019-06-08T14:50:03.346Z,0.90
2019-06-08T14:52:38.081Z,1.10
2019-06-08T14:55:11.674Z,0.90
2019-06-08T14:57:42.144Z,1.00
2019-06-08T15:00:14.335Z,1.40
2019-06-08T15:02:44.910Z,1.20
2019-06-08T15:05:15.267Z,0.87
2019-06-08T15:07:47.761Z,1.03
2019-06-08T15:10:21.461Z,1.00
2019-06-08T15:13:31.140Z,1.17
2019-06-08T15:16:08.096Z,1.07
2019-06-08T15:18:40.858Z,1.00
2019-06-08T15:21:14.010Z,1.10
2019-06-08T15:23:44.333Z,1.50
2019-06-08T15:26:23.939Z,1.23
2019-06-08T15:28:48.653Z,1.50
2019-06-08T15:31:21.113Z,1.23
2019-06-08T15:33:51.610Z,1.10
2019-06-08T15:36:25.279Z,1.63
2019-06-08T15:39:01.498Z,1.20
2019-06-08T15:41:34.779Z,1.23
2019-06-08T15:44:05.893Z,1.50
2019-06-08T15:46:41.116Z,1.10
2019-06-08T15:49:11.647Z,1.57
2019-06-08T15:51:43.304Z,1.10
2019-06-08T15:54:17.896Z,1.33
2019-06-08T15:56:52.096Z,1.20
2019-06-08T15:59:20.667Z,1.20
2019-06-08T16:01:58.293Z,1.30
2019-06-08T16:04:36.305Z,1.30
2019-06-08T16:07:07.013Z,1.50
2019-06-08T16:09:38.642Z,1.20
2019-06-08T16:12:16.952Z,1.40
2019-06-08T16:15:01.767Z,1.03
2019-06-08T16:17:35.595Z,1.27
2019-06-08T16:20:07.188Z,1.40
2019-06-08T16:22:41.892Z,1.30
2019-06-08T16:25:12.613Z,1.30
2019-06-08T16:27:44.543Z,1.43
2019-06-08T16:30:18.107Z,1.10
2019-06-08T16:32:49.625Z,1.30
2019-06-08T16:35:23.113Z,1.67
2019-06-08T16:37:57.178Z,1.63
2019-06-08T16:40:27.700Z,1.07
2019-06-08T16:42:59.336Z,1.40
2019-06-08T16:45:30.976Z,1.23
2019-06-08T16:48:01.407Z,1.10
2019-06-08T16:50:32.260Z,1.10
2019-06-08T16:53:16.140Z,1.43
2019-06-08T16:55:43.851Z,1.47
2019-06-08T16:58:34.316Z,0.90
2019-06-08T17:00:54.962Z,1.40
2019-06-08T17:03:30.719Z,1.30
2019-06-08T17:06:08.594Z,2.90
2019-06-08T17:08:44.274Z,1.80
2019-06-08T17:11:18.349Z,1.07
2019-06-08T17:13:49.102Z,1.70
2019-06-08T17:16:26.326Z,1.37
2019-06-08T17:19:00.864Z,1.40
2019-06-08T17:21:32.203Z,1.60
2019-06-08T17:24:11.535Z,1.10
2019-06-08T17:26:41.955Z,1.30
2019-06-08T17:29:17.527Z,1.37
2019-06-08T17:31:53.738Z,1.50
2019-06-08T17:34:24.183Z,1.13
2019-06-08T17:36:55.488Z,1.50
2019-06-08T17:39:29.323Z,1.40
2019-06-08T17:41:58.441Z,1.13
2019-06-08T17:44:34.770Z,1.17
2019-06-08T17:47:05.213Z,1.10
2019-06-08T17:49:44.687Z,1.17
2019-06-08T17:52:15.022Z,1.47
2019-06-08T17:54:46.334Z,1.23
2019-06-08T17:57:17.252Z,1.30
2019-06-08T17:59:47.920Z,1.47
2019-06-08T18:02:27.281Z,1.23
2019-06-08T18:04:58.476Z,1.57
2019-06-08T18:07:28.837Z,1.60
2019-06-08T18:09:59.662Z,1.40
2019-06-08T18:12:33.765Z,1.33
2019-06-08T18:15:07.855Z,1.17
2019-06-08T18:17:42.662Z,1.13
2019-06-08T18:20:17.545Z,1.60
2019-06-08T18:22:51.872Z,1.30
2019-06-08T18:25:27.700Z,1.43
2019-06-08T18:28:09.745Z,1.33
2019-06-08T18:30:31.127Z,1.40
2019-06-08T18:33:09.481Z,1.20
2019-06-08T18:35:41.863Z,1.60
2019-06-08T18:38:21.244Z,1.27
2019-06-08T18:40:49.918Z,1.17
2019-06-08T18:43:20.395Z,1.30
2019-06-08T18:45:53.738Z,1.60
2019-06-08T18:48:28.063Z,1.40
2019-06-08T18:51:00.038Z,1.53
2019-06-08T18:53:45.571Z,1.30
2019-06-08T18:56:11.638Z,1.40
2019-06-08T18:58:42.209Z,1.70
2019-06-08T19:01:21.572Z,1.30
2019-06-08T19:03:52.932Z,1.33
2019-06-08T19:06:23.217Z,1.40
2019-06-08T19:08:58.233Z,1.70
2019-06-08T19:11:32.778Z,1.43
2019-06-08T19:14:07.182Z,1.50
2019-06-08T19:16:49.843Z,1.50
2019-06-08T19:19:28.510Z,1.60
2019-06-08T19:22:00.272Z,1.40
2019-06-08T19:24:49.471Z,1.40
2019-06-08T19:27:20.147Z,1.30
2019-06-08T19:29:52.963Z,1.50
2019-06-08T19:32:28.017Z,1.30
2019-06-08T19:34:59.932Z,1.40
2019-06-08T19:37:32.735Z,2.00
2019-06-08T19:40:07.419Z,2.03
2019-06-08T19:42:51.037Z,1.50
2019-06-08T19:45:18.173Z,1.60
2019-06-08T19:47:51.888Z,1.70
2019-06-08T19:50:24.699Z,1.67
2019-06-08T19:52:58.062Z,1.30
2019-06-08T19:55:28.750Z,1.60
2019-06-08T19:58:04.634Z,1.50
2019-06-08T20:00:38.771Z,1.70
2019-06-08T20:03:09.842Z,1.47
2019-06-08T20:05:45.375Z,1.50
2019-06-08T20:08:24.457Z,1.67
2019-06-08T20:10:57.752Z,1.73
2019-06-08T20:13:29.906Z,2.10
2019-06-08T20:16:03.483Z,2.00
2019-06-08T20:18:33.876Z,1.80
2019-06-08T20:21:10.058Z,1.90
2019-06-08T20:24:10.523Z,2.07
2019-06-08T20:26:44.214Z,1.70
2019-06-08T20:29:19.828Z,1.50
2019-06-08T20:31:51.553Z,1.60
2019-06-08T20:34:23.976Z,1.63
2019-06-08T20:36:54.461Z,2.13
2019-06-08T20:39:27.209Z,1.50
2019-06-08T20:41:58.526Z,1.70
2019-06-08T20:44:38.527Z,1.80
2019-06-08T20:47:23.997Z,1.90
2019-06-08T20:49:58.123Z,1.97
2019-06-08T20:52:29.999Z,1.70
2019-06-08T20:55:03.238Z,1.80
2019-06-08T20:57:35.941Z,2.07
2019-06-08T21:00:12.079Z,2.10
2019-06-08T21:02:43.901Z,1.63
2019-06-08T21:05:18.267Z,1.97
2019-06-08T21:07:52.892Z,1.60
2019-06-08T21:10:28.179Z,2.27
2019-06-08T21:13:01.838Z,1.70
2019-06-08T21:15:32.542Z,2.00
2019-06-08T21:18:02.869Z,2.00
2019-06-08T21:20:33.202Z,2.30
2019-06-08T21:23:07.933Z,1.93
2019-06-08T21:25:41.276Z,1.90
2019-06-08T21:28:13.831Z,1.80
2019-06-08T21:30:46.630Z,1.70
2019-06-08T21:33:18.232Z,2.07
2019-06-08T21:35:57.731Z,1.90
2019-06-08T21:38:28.195Z,1.90
2019-06-08T21:41:02.521Z,1.90
2019-06-08T21:43:33.059Z,2.07
2019-06-08T21:46:03.325Z,2.40
2019-06-08T21:48:33.689Z,2.33
2019-06-08T21:51:08.353Z,2.03
2019-06-08T21:53:43.095Z,2.47
2019-06-08T21:56:18.167Z,2.20
2019-06-08T21:58:50.310Z,2.20
2019-06-08T22:01:22.774Z,2.37
2019-06-08T22:03:58.503Z,2.27
2019-06-08T22:06:30.195Z,2.10
2019-06-08T22:09:02.933Z,2.23
2019-06-08T22:11:37.623Z,2.10
2019-06-08T22:14:12.775Z,2.00
2019-06-08T22:16:52.526Z,2.10
2019-06-08T22:19:27.445Z,2.23
2019-06-08T22:22:01.467Z,2.67
2019-06-08T22:24:31.303Z,2.53
2019-06-08T22:27:07.161Z,2.23
2019-06-08T22:29:38.383Z,2.50
2019-06-08T22:32:20.587Z,2.30
2019-06-08T22:34:53.158Z,2.87
2019-06-08T22:37:34.440Z,2.60
2019-06-08T22:40:09.110Z,2.63
2019-06-08T22:42:49.381Z,2.17
2019-06-08T22:45:24.903Z,2.80
2019-06-08T22:47:58.602Z,3.07
2019-06-08T22:50:27.651Z,3.10
2019-06-08T22:52:59.516Z,2.70
2019-06-08T22:55:34.466Z,2.50
2019-06-08T22:58:07.528Z,2.33
2019-06-08T23:00:51.785Z,2.83
2019-06-08T23:03:12.256Z,3.13
2019-06-08T23:05:47.549Z,3.00
2019-06-08T23:08:18.916Z,3.00
2019-06-08T23:10:53.134Z,2.43
2019-06-08T23:13:28.398Z,2.63
2019-06-08T23:16:02.173Z,2.93
2019-06-08T23:18:34.249Z,2.70
2019-06-08T23:21:08.684Z,2.93
2019-06-08T23:23:38.317Z,2.93
2019-06-08T23:26:14.899Z,2.93
2019-06-08T23:28:47.189Z,3.00
2019-06-08T23:31:25.114Z,3.17
2019-06-08T23:33:50.147Z,3.10
2019-06-08T23:36:44.911Z,3.30
2019-06-08T23:38:54.756Z,3.20
2019-06-08T23:41:27.138Z,2.90
2019-06-08T23:43:57.521Z,3.03
2019-06-08T23:46:28.091Z,3.20
2019-06-08T23:49:03.901Z,3.10
2019-06-08T23:51:34.414Z,3.03
2019-06-08T23:54:06.417Z,2.87
2019-06-08T23:56:39.816Z,2.73
2019-06-08T23:59:14.660Z,3.10
